sensor_id;sensor_type;location;lat;lon;timestamp;temperature;humidity
8220;DHT22;4151;51.110;7.020;2023-02-18T00:01:54;11.00;99.90
8220;DHT22;4151;51.110;7.020;2023-02-18T00:04:20;11.00;99.90
8220;DHT22;4151;51.110;7.020;2023-02-18T00:06:46;11.00;99.90
8220;DHT22;4151;51.110;7.020;2023-02-18T00:09:11;11.00;99.90
8220;DHT22;4151;51.110;7.020;2023-02-18T00:11:37;11.00;99.90
8220;DHT22;4151;51.110;7.020;2023-02-18T00:14:06;11.00;99.90
8220;DHT22;4151;51.110;7.020;2023-02-18T00:16:31;11.00;99.90
8220;DHT22;4151;51.110;7.020;2023-02-18T00:19:02;11.00;99.90
8220;DHT22;4151;51.110;7.020;2023-02-18T00:21:28;11.00;99.90
8220;DHT22;4151;51.110;7.020;2023-02-18T00:23:54;11.00;99.90
8220;DHT22;4151;51.110;7.020;2023-02-18T00:26:20;11.00;99.90
8220;DHT22;4151;51.110;7.020;2023-02-18T00:28:46;11.00;99.90
8220;DHT22;4151;51.110;7.020;2023-02-18T00:31:22;11.00;99.90
8220;DHT22;4151;51.110;7.020;2023-02-18T00:33:48;11.00;99.90
8220;DHT22;4151;51.110;7.020;2023-02-18T00:36:16;10.90;99.90
8220;DHT22;4151;51.110;7.020;2023-02-18T00:38:50;10.90;99.90
8220;DHT22;4151;51.110;7.020;2023-02-18T00:41:16;10.90;99.90
8220;DHT22;4151;51.110;7.020;2023-02-18T00:43:42;10.90;99.90
8220;DHT22;4151;51.110;7.020;2023-02-18T00:46:08;10.80;99.90
8220;DHT22;4151;51.110;7.020;2023-02-18T00:48:34;10.90;99.90
8220;DHT22;4151;51.110;7.020;2023-02-18T00:51:00;10.80;99.90
8220;DHT22;4151;51.110;7.020;2023-02-18T00:53:30;10.80;99.90
8220;DHT22;4151;51.110;7.020;2023-02-18T00:55:55;10.80;99.90
8220;DHT22;4151;51.110;7.020;2023-02-18T00:58:21;10.80;99.90
8220;DHT22;4151;51.110;7.020;2023-02-18T01:00:47;10.80;99.90
8220;DHT22;4151;51.110;7.020;2023-02-18T01:03:13;10.80;99.90
8220;DHT22;4151;51.110;7.020;2023-02-18T01:05:39;10.80;99.90
8220;DHT22;4151;51.110;7.020;2023-02-18T01:08:06;10.80;99.90
8220;DHT22;4151;51.110;7.020;2023-02-18T01:10:34;10.80;99.90
8220;DHT22;4151;51.110;7.020;2023-02-18T01:13:00;10.80;99.90
8220;DHT22;4151;51.110;7.020;2023-02-18T01:15:26;10.80;99.90
8220;DHT22;4151;51.110;7.020;2023-02-18T01:17:51;10.80;99.90
8220;DHT22;4151;51.110;7.020;2023-02-18T01:20:19;10.80;99.90
8220;DHT22;4151;51.110;7.020;2023-02-18T01:22:44;10.80;99.90
8220;DHT22;4151;51.110;7.020;2023-02-18T01:25:10;10.80;99.90
8220;DHT22;4151;51.110;7.020;2023-02-18T01:27:36;10.80;99.90
8220;DHT22;4151;51.110;7.020;2023-02-18T01:30:07;10.80;99.90
8220;DHT22;4151;51.110;7.020;2023-02-18T01:32:32;10.80;99.90
8220;DHT22;4151;51.110;7.020;2023-02-18T01:35:02;10.80;99.90
8220;DHT22;4151;51.110;7.020;2023-02-18T01:37:28;10.80;99.90
8220;DHT22;4151;51.110;7.020;2023-02-18T01:39:54;10.80;99.90
8220;DHT22;4151;51.110;7.020;2023-02-18T01:42:23;10.80;99.90
8220;DHT22;4151;51.110;7.020;2023-02-18T01:44:50;10.80;99.90
8220;DHT22;4151;51.110;7.020;2023-02-18T01:47:16;10.80;99.90
8220;DHT22;4151;51.110;7.020;2023-02-18T01:49:44;10.90;99.90
8220;DHT22;4151;51.110;7.020;2023-02-18T01:52:28;10.80;99.90
8220;DHT22;4151;51.110;7.020;2023-02-18T01:54:56;10.80;99.90
8220;DHT22;4151;51.110;7.020;2023-02-18T01:57:26;10.90;99.90
8220;DHT22;4151;51.110;7.020;2023-02-18T01:59:56;10.80;99.90
8220;DHT22;4151;51.110;7.020;2023-02-18T02:02:25;10.80;99.90
8220;DHT22;4151;51.110;7.020;2023-02-18T02:04:51;10.80;99.90
8220;DHT22;4151;51.110;7.020;2023-02-18T02:07:18;10.80;99.90
8220;DHT22;4151;51.110;7.020;2023-02-18T02:09:44;10.80;99.90
8220;DHT22;4151;51.110;7.020;2023-02-18T02:17:42;10.80;99.90
8220;DHT22;4151;51.110;7.020;2023-02-18T02:48:04;10.30;99.90
8220;DHT22;4151;51.110;7.020;2023-02-18T02:50:53;10.30;99.90
8220;DHT22;4151;51.110;7.020;2023-02-18T02:53:26;10.30;99.90
8220;DHT22;4151;51.110;7.020;2023-02-18T02:55:52;10.40;99.90
8220;DHT22;4151;51.110;7.020;2023-02-18T02:58:21;10.30;99.90
8220;DHT22;4151;51.110;7.020;2023-02-18T03:01:24;10.30;99.90
8220;DHT22;4151;51.110;7.020;2023-02-18T03:07:13;10.30;99.90
8220;DHT22;4151;51.110;7.020;2023-02-18T03:15:42;10.40;99.90
8220;DHT22;4151;51.110;7.020;2023-02-18T03:18:07;10.40;99.90
8220;DHT22;4151;51.110;7.020;2023-02-18T03:20:40;10.40;99.90
8220;DHT22;4151;51.110;7.020;2023-02-18T03:23:10;10.50;99.90
8220;DHT22;4151;51.110;7.020;2023-02-18T03:25:39;10.50;99.90
8220;DHT22;4151;51.110;7.020;2023-02-18T03:28:09;10.50;99.90
8220;DHT22;4151;51.110;7.020;2023-02-18T03:30:52;10.50;99.90
8220;DHT22;4151;51.110;7.020;2023-02-18T03:33:30;10.60;99.90
8220;DHT22;4151;51.110;7.020;2023-02-18T03:35:58;10.60;99.90
8220;DHT22;4151;51.110;7.020;2023-02-18T03:38:28;10.70;99.90
8220;DHT22;4151;51.110;7.020;2023-02-18T03:40:56;10.70;99.90
8220;DHT22;4151;51.110;7.020;2023-02-18T03:43:22;10.70;99.90
8220;DHT22;4151;51.110;7.020;2023-02-18T03:45:48;10.60;99.90
8220;DHT22;4151;51.110;7.020;2023-02-18T03:48:13;10.60;99.90
8220;DHT22;4151;51.110;7.020;2023-02-18T03:50:39;10.50;99.90
8220;DHT22;4151;51.110;7.020;2023-02-18T03:53:05;10.40;99.90
8220;DHT22;4151;51.110;7.020;2023-02-18T03:55:30;10.40;99.90
8220;DHT22;4151;51.110;7.020;2023-02-18T03:57:56;10.30;99.90
8220;DHT22;4151;51.110;7.020;2023-02-18T04:00:21;10.30;99.90
8220;DHT22;4151;51.110;7.020;2023-02-18T04:02:47;10.20;99.90
8220;DHT22;4151;51.110;7.020;2023-02-18T04:05:12;10.20;99.90
8220;DHT22;4151;51.110;7.020;2023-02-18T04:07:38;10.20;99.90
8220;DHT22;4151;51.110;7.020;2023-02-18T04:10:05;10.20;99.90
8220;DHT22;4151;51.110;7.020;2023-02-18T04:12:31;10.10;99.90
8220;DHT22;4151;51.110;7.020;2023-02-18T04:14:56;10.10;99.90
8220;DHT22;4151;51.110;7.020;2023-02-18T04:17:22;10.10;99.90
8220;DHT22;4151;51.110;7.020;2023-02-18T04:19:47;10.10;99.90
8220;DHT22;4151;51.110;7.020;2023-02-18T04:22:13;10.10;99.90
8220;DHT22;4151;51.110;7.020;2023-02-18T04:24:39;10.10;99.90
8220;DHT22;4151;51.110;7.020;2023-02-18T04:27:04;10.00;99.90
8220;DHT22;4151;51.110;7.020;2023-02-18T04:29:30;10.10;99.90
8220;DHT22;4151;51.110;7.020;2023-02-18T04:31:55;10.00;99.90
8220;DHT22;4151;51.110;7.020;2023-02-18T04:34:21;10.00;99.90
8220;DHT22;4151;51.110;7.020;2023-02-18T04:36:46;10.00;99.90
8220;DHT22;4151;51.110;7.020;2023-02-18T04:39:12;10.00;99.90
8220;DHT22;4151;51.110;7.020;2023-02-18T04:41:38;10.00;99.90
8220;DHT22;4151;51.110;7.020;2023-02-18T04:44:03;10.00;99.90
8220;DHT22;4151;51.110;7.020;2023-02-18T04:46:29;10.00;99.90
8220;DHT22;4151;51.110;7.020;2023-02-18T04:48:55;9.90;99.90
8220;DHT22;4151;51.110;7.020;2023-02-18T04:51:20;9.90;99.90
8220;DHT22;4151;51.110;7.020;2023-02-18T04:53:46;9.90;99.90
8220;DHT22;4151;51.110;7.020;2023-02-18T04:56:12;9.90;99.90
8220;DHT22;4151;51.110;7.020;2023-02-18T04:58:37;9.90;99.90
8220;DHT22;4151;51.110;7.020;2023-02-18T05:01:03;9.90;99.90
8220;DHT22;4151;51.110;7.020;2023-02-18T05:03:30;9.90;99.90
8220;DHT22;4151;51.110;7.020;2023-02-18T05:05:56;9.90;99.90
8220;DHT22;4151;51.110;7.020;2023-02-18T05:08:22;9.80;99.90
8220;DHT22;4151;51.110;7.020;2023-02-18T05:10:48;9.90;99.90
8220;DHT22;4151;51.110;7.020;2023-02-18T05:13:13;9.80;99.90
8220;DHT22;4151;51.110;7.020;2023-02-18T05:15:39;9.80;99.90
8220;DHT22;4151;51.110;7.020;2023-02-18T05:18:05;9.80;99.90
8220;DHT22;4151;51.110;7.020;2023-02-18T05:20:31;9.80;99.90
8220;DHT22;4151;51.110;7.020;2023-02-18T05:22:57;9.80;99.90
8220;DHT22;4151;51.110;7.020;2023-02-18T05:25:22;9.80;99.90
8220;DHT22;4151;51.110;7.020;2023-02-18T05:27:48;9.80;99.90
8220;DHT22;4151;51.110;7.020;2023-02-18T05:30:13;9.80;99.90
8220;DHT22;4151;51.110;7.020;2023-02-18T05:32:39;9.80;99.90
8220;DHT22;4151;51.110;7.020;2023-02-18T05:35:05;9.80;99.90
8220;DHT22;4151;51.110;7.020;2023-02-18T05:37:30;9.80;99.90
8220;DHT22;4151;51.110;7.020;2023-02-18T05:39:56;9.80;99.90
8220;DHT22;4151;51.110;7.020;2023-02-18T05:42:22;9.80;99.90
8220;DHT22;4151;51.110;7.020;2023-02-18T05:44:48;9.80;99.90
8220;DHT22;4151;51.110;7.020;2023-02-18T05:47:14;9.80;99.90
8220;DHT22;4151;51.110;7.020;2023-02-18T05:49:40;9.80;99.90
8220;DHT22;4151;51.110;7.020;2023-02-18T05:52:07;9.80;99.90
8220;DHT22;4151;51.110;7.020;2023-02-18T05:54:33;9.80;99.90
8220;DHT22;4151;51.110;7.020;2023-02-18T05:56:59;9.80;99.90
8220;DHT22;4151;51.110;7.020;2023-02-18T05:59:25;9.80;99.90
8220;DHT22;4151;51.110;7.020;2023-02-18T06:01:50;9.80;99.90
8220;DHT22;4151;51.110;7.020;2023-02-18T06:04:16;9.80;99.90
8220;DHT22;4151;51.110;7.020;2023-02-18T06:06:42;9.80;99.90
8220;DHT22;4151;51.110;7.020;2023-02-18T06:09:08;9.80;99.90
8220;DHT22;4151;51.110;7.020;2023-02-18T06:11:34;9.80;99.90
8220;DHT22;4151;51.110;7.020;2023-02-18T06:14:00;9.80;99.90
8220;DHT22;4151;51.110;7.020;2023-02-18T06:16:26;9.80;99.90
8220;DHT22;4151;51.110;7.020;2023-02-18T06:18:52;9.70;99.90
8220;DHT22;4151;51.110;7.020;2023-02-18T06:21:18;9.80;99.90
8220;DHT22;4151;51.110;7.020;2023-02-18T06:23:43;9.70;99.90
8220;DHT22;4151;51.110;7.020;2023-02-18T06:26:09;9.80;99.90
8220;DHT22;4151;51.110;7.020;2023-02-18T06:28:35;9.70;99.90
8220;DHT22;4151;51.110;7.020;2023-02-18T06:31:00;9.70;99.90
8220;DHT22;4151;51.110;7.020;2023-02-18T06:33:26;9.80;99.90
8220;DHT22;4151;51.110;7.020;2023-02-18T06:35:57;9.70;99.90
8220;DHT22;4151;51.110;7.020;2023-02-18T06:38:22;9.70;99.90
8220;DHT22;4151;51.110;7.020;2023-02-18T06:40:48;9.70;99.90
8220;DHT22;4151;51.110;7.020;2023-02-18T06:43:14;9.70;99.90
8220;DHT22;4151;51.110;7.020;2023-02-18T06:45:39;9.70;99.90
8220;DHT22;4151;51.110;7.020;2023-02-18T06:48:05;9.70;99.90
8220;DHT22;4151;51.110;7.020;2023-02-18T06:50:30;9.70;99.90
8220;DHT22;4151;51.110;7.020;2023-02-18T06:52:56;9.70;99.90
8220;DHT22;4151;51.110;7.020;2023-02-18T06:55:22;9.70;99.90
8220;DHT22;4151;51.110;7.020;2023-02-18T06:57:47;9.70;99.90
8220;DHT22;4151;51.110;7.020;2023-02-18T07:00:13;9.70;99.90
8220;DHT22;4151;51.110;7.020;2023-02-18T07:02:39;9.70;99.90
8220;DHT22;4151;51.110;7.020;2023-02-18T07:05:05;9.80;99.90
8220;DHT22;4151;51.110;7.020;2023-02-18T07:07:30;9.70;99.90
8220;DHT22;4151;51.110;7.020;2023-02-18T07:09:56;9.80;99.90
8220;DHT22;4151;51.110;7.020;2023-02-18T07:12:21;9.80;99.90
8220;DHT22;4151;51.110;7.020;2023-02-18T07:14:47;9.80;99.90
8220;DHT22;4151;51.110;7.020;2023-02-18T07:17:13;9.90;99.90
8220;DHT22;4151;51.110;7.020;2023-02-18T07:19:39;10.00;99.90
8220;DHT22;4151;51.110;7.020;2023-02-18T07:22:04;10.00;99.90
8220;DHT22;4151;51.110;7.020;2023-02-18T07:24:30;10.10;99.90
8220;DHT22;4151;51.110;7.020;2023-02-18T07:26:56;10.10;99.90
8220;DHT22;4151;51.110;7.020;2023-02-18T07:29:21;10.20;99.90
8220;DHT22;4151;51.110;7.020;2023-02-18T07:31:47;10.20;99.90
8220;DHT22;4151;51.110;7.020;2023-02-18T07:34:12;10.20;99.90
8220;DHT22;4151;51.110;7.020;2023-02-18T07:36:38;10.30;99.90
8220;DHT22;4151;51.110;7.020;2023-02-18T07:39:04;10.40;99.90
8220;DHT22;4151;51.110;7.020;2023-02-18T07:41:29;10.40;99.90
8220;DHT22;4151;51.110;7.020;2023-02-18T07:43:55;10.40;99.90
8220;DHT22;4151;51.110;7.020;2023-02-18T07:46:20;10.40;99.90
8220;DHT22;4151;51.110;7.020;2023-02-18T07:48:46;10.40;99.90
8220;DHT22;4151;51.110;7.020;2023-02-18T07:51:12;10.50;99.90
8220;DHT22;4151;51.110;7.020;2023-02-18T07:53:38;10.40;99.90
8220;DHT22;4151;51.110;7.020;2023-02-18T07:56:05;10.50;99.90
8220;DHT22;4151;51.110;7.020;2023-02-18T07:58:34;10.40;99.90
8220;DHT22;4151;51.110;7.020;2023-02-18T08:01:07;10.20;99.90
8220;DHT22;4151;51.110;7.020;2023-02-18T08:03:33;10.10;99.90
8220;DHT22;4151;51.110;7.020;2023-02-18T08:05:59;9.90;99.90
8220;DHT22;4151;51.110;7.020;2023-02-18T08:08:27;9.80;99.90
8220;DHT22;4151;51.110;7.020;2023-02-18T08:10:57;9.80;99.90
8220;DHT22;4151;51.110;7.020;2023-02-18T08:13:23;9.70;99.90
8220;DHT22;4151;51.110;7.020;2023-02-18T08:15:49;9.60;99.90
8220;DHT22;4151;51.110;7.020;2023-02-18T08:18:17;9.50;99.90
8220;DHT22;4151;51.110;7.020;2023-02-18T08:20:43;9.50;99.90
8220;DHT22;4151;51.110;7.020;2023-02-18T08:23:09;9.50;99.90
8220;DHT22;4151;51.110;7.020;2023-02-18T08:25:35;9.50;99.90
8220;DHT22;4151;51.110;7.020;2023-02-18T08:28:01;9.50;99.90
8220;DHT22;4151;51.110;7.020;2023-02-18T08:30:26;9.50;99.90
8220;DHT22;4151;51.110;7.020;2023-02-18T08:32:52;9.40;99.90
8220;DHT22;4151;51.110;7.020;2023-02-18T08:35:18;9.40;99.90
8220;DHT22;4151;51.110;7.020;2023-02-18T08:37:43;9.30;99.90
8220;DHT22;4151;51.110;7.020;2023-02-18T08:40:10;9.30;99.90
8220;DHT22;4151;51.110;7.020;2023-02-18T08:42:35;9.30;99.90
8220;DHT22;4151;51.110;7.020;2023-02-18T08:45:01;9.30;99.90
8220;DHT22;4151;51.110;7.020;2023-02-18T08:47:26;9.20;99.90
8220;DHT22;4151;51.110;7.020;2023-02-18T08:49:53;9.20;99.90
8220;DHT22;4151;51.110;7.020;2023-02-18T08:52:19;9.20;99.90
8220;DHT22;4151;51.110;7.020;2023-02-18T08:54:44;9.20;99.90
8220;DHT22;4151;51.110;7.020;2023-02-18T08:57:10;9.20;99.90
8220;DHT22;4151;51.110;7.020;2023-02-18T08:59:35;9.20;99.90
8220;DHT22;4151;51.110;7.020;2023-02-18T09:02:01;9.20;99.90
8220;DHT22;4151;51.110;7.020;2023-02-18T09:04:26;9.30;99.90
8220;DHT22;4151;51.110;7.020;2023-02-18T09:06:52;9.30;99.90
8220;DHT22;4151;51.110;7.020;2023-02-18T09:09:18;9.40;99.90
8220;DHT22;4151;51.110;7.020;2023-02-18T09:11:43;9.50;99.90
8220;DHT22;4151;51.110;7.020;2023-02-18T09:14:09;9.50;99.90
8220;DHT22;4151;51.110;7.020;2023-02-18T09:16:35;9.50;99.90
8220;DHT22;4151;51.110;7.020;2023-02-18T09:19:03;9.60;99.90
8220;DHT22;4151;51.110;7.020;2023-02-18T09:21:28;9.60;99.90
8220;DHT22;4151;51.110;7.020;2023-02-18T09:23:54;9.50;99.90
8220;DHT22;4151;51.110;7.020;2023-02-18T09:26:20;9.60;99.90
8220;DHT22;4151;51.110;7.020;2023-02-18T09:28:51;9.60;99.90
8220;DHT22;4151;51.110;7.020;2023-02-18T09:31:20;9.60;99.90
8220;DHT22;4151;51.110;7.020;2023-02-18T09:33:49;9.70;99.90
8220;DHT22;4151;51.110;7.020;2023-02-18T09:36:15;9.70;99.90
8220;DHT22;4151;51.110;7.020;2023-02-18T09:38:41;9.70;99.90
8220;DHT22;4151;51.110;7.020;2023-02-18T09:41:19;9.70;99.90
8220;DHT22;4151;51.110;7.020;2023-02-18T09:43:53;9.70;99.90
8220;DHT22;4151;51.110;7.020;2023-02-18T09:46:23;9.80;99.90
8220;DHT22;4151;51.110;7.020;2023-02-18T09:48:51;9.80;99.90
8220;DHT22;4151;51.110;7.020;2023-02-18T09:51:17;9.80;99.90
8220;DHT22;4151;51.110;7.020;2023-02-18T09:53:44;9.80;99.90
8220;DHT22;4151;51.110;7.020;2023-02-18T09:56:20;9.80;99.90
8220;DHT22;4151;51.110;7.020;2023-02-18T09:58:48;9.90;99.90
8220;DHT22;4151;51.110;7.020;2023-02-18T10:01:33;9.90;99.90
8220;DHT22;4151;51.110;7.020;2023-02-18T10:04:06;10.00;99.90
8220;DHT22;4151;51.110;7.020;2023-02-18T10:06:34;10.00;99.90
8220;DHT22;4151;51.110;7.020;2023-02-18T10:09:13;9.90;99.90
8220;DHT22;4151;51.110;7.020;2023-02-18T10:11:42;10.00;99.90
8220;DHT22;4151;51.110;7.020;2023-02-18T10:14:12;10.00;99.90
8220;DHT22;4151;51.110;7.020;2023-02-18T10:16:39;10.00;99.90
8220;DHT22;4151;51.110;7.020;2023-02-18T10:21:37;10.00;99.90
8220;DHT22;4151;51.110;7.020;2023-02-18T10:24:31;10.10;99.90
8220;DHT22;4151;51.110;7.020;2023-02-18T10:26:59;10.10;99.90
8220;DHT22;4151;51.110;7.020;2023-02-18T10:29:25;10.10;99.90
8220;DHT22;4151;51.110;7.020;2023-02-18T10:32:29;10.00;99.90
8220;DHT22;4151;51.110;7.020;2023-02-18T10:48:15;10.10;99.90
8220;DHT22;4151;51.110;7.020;2023-02-18T10:50:44;10.10;99.90
8220;DHT22;4151;51.110;7.020;2023-02-18T10:55:43;9.70;99.90
8220;DHT22;4151;51.110;7.020;2023-02-18T10:58:46;9.50;99.90
8220;DHT22;4151;51.110;7.020;2023-02-18T11:01:18;9.40;99.90
8220;DHT22;4151;51.110;7.020;2023-02-18T11:03:49;9.30;99.90
8220;DHT22;4151;51.110;7.020;2023-02-18T11:06:21;9.30;99.90
8220;DHT22;4151;51.110;7.020;2023-02-18T11:08:49;9.30;99.90
8220;DHT22;4151;51.110;7.020;2023-02-18T11:11:29;9.30;99.90
8220;DHT22;4151;51.110;7.020;2023-02-18T11:13:59;9.30;99.90
8220;DHT22;4151;51.110;7.020;2023-02-18T11:16:40;9.30;99.90
8220;DHT22;4151;51.110;7.020;2023-02-18T11:19:35;9.30;99.90
8220;DHT22;4151;51.110;7.020;2023-02-18T11:22:18;9.30;99.90
8220;DHT22;4151;51.110;7.020;2023-02-18T11:24:45;9.20;99.90
8220;DHT22;4151;51.110;7.020;2023-02-18T11:27:40;9.20;99.90
8220;DHT22;4151;51.110;7.020;2023-02-18T11:30:16;9.20;99.90
8220;DHT22;4151;51.110;7.020;2023-02-18T11:32:43;9.10;99.90
8220;DHT22;4151;51.110;7.020;2023-02-18T11:35:19;9.20;99.90
8220;DHT22;4151;51.110;7.020;2023-02-18T11:37:45;9.10;99.90
8220;DHT22;4151;51.110;7.020;2023-02-18T11:40:40;9.10;99.90
8220;DHT22;4151;51.110;7.020;2023-02-18T11:43:13;9.10;99.90
8220;DHT22;4151;51.110;7.020;2023-02-18T11:45:40;9.20;99.90
8220;DHT22;4151;51.110;7.020;2023-02-18T11:48:17;9.20;99.90
8220;DHT22;4151;51.110;7.020;2023-02-18T11:50:44;9.20;99.90
8220;DHT22;4151;51.110;7.020;2023-02-18T11:53:49;9.30;99.90
8220;DHT22;4151;51.110;7.020;2023-02-18T11:56:18;9.30;99.90
8220;DHT22;4151;51.110;7.020;2023-02-18T11:58:47;9.30;99.90
8220;DHT22;4151;51.110;7.020;2023-02-18T12:01:35;9.30;99.90
8220;DHT22;4151;51.110;7.020;2023-02-18T12:04:15;9.40;99.90
8220;DHT22;4151;51.110;7.020;2023-02-18T12:07:27;9.30;99.90
8220;DHT22;4151;51.110;7.020;2023-02-18T12:09:46;9.40;99.90
8220;DHT22;4151;51.110;7.020;2023-02-18T12:12:27;9.40;99.90
8220;DHT22;4151;51.110;7.020;2023-02-18T12:14:55;9.40;99.90
8220;DHT22;4151;51.110;7.020;2023-02-18T12:22:44;9.30;99.90
8220;DHT22;4151;51.110;7.020;2023-02-18T12:25:50;9.30;99.90
8220;DHT22;4151;51.110;7.020;2023-02-18T12:31:38;9.30;99.90
8220;DHT22;4151;51.110;7.020;2023-02-18T12:34:38;9.30;99.90
8220;DHT22;4151;51.110;7.020;2023-02-18T12:37:43;9.30;99.90
8220;DHT22;4151;51.110;7.020;2023-02-18T12:58:12;9.40;99.90
8220;DHT22;4151;51.110;7.020;2023-02-18T13:17:26;9.40;99.90
8220;DHT22;4151;51.110;7.020;2023-02-18T13:19:58;9.40;99.90
8220;DHT22;4151;51.110;7.020;2023-02-18T13:22:28;9.40;99.90
8220;DHT22;4151;51.110;7.020;2023-02-18T13:24:55;9.50;99.90
8220;DHT22;4151;51.110;7.020;2023-02-18T13:33:21;9.50;99.90
8220;DHT22;4151;51.110;7.020;2023-02-18T13:36:00;9.50;99.90
8220;DHT22;4151;51.110;7.020;2023-02-18T13:41:19;9.50;99.90
8220;DHT22;4151;51.110;7.020;2023-02-18T13:43:45;9.50;99.90
8220;DHT22;4151;51.110;7.020;2023-02-18T13:54:04;9.50;99.90
8220;DHT22;4151;51.110;7.020;2023-02-18T13:56:39;9.50;99.90
8220;DHT22;4151;51.110;7.020;2023-02-18T13:59:07;9.60;99.90
8220;DHT22;4151;51.110;7.020;2023-02-18T14:01:43;9.60;99.90
8220;DHT22;4151;51.110;7.020;2023-02-18T14:20:43;9.60;99.90
8220;DHT22;4151;51.110;7.020;2023-02-18T14:26:05;9.60;99.90
8220;DHT22;4151;51.110;7.020;2023-02-18T14:28:35;9.70;99.90
8220;DHT22;4151;51.110;7.020;2023-02-18T14:33:47;9.60;99.90
8220;DHT22;4151;51.110;7.020;2023-02-18T14:38:52;9.60;99.90
8220;DHT22;4151;51.110;7.020;2023-02-18T14:44:13;9.70;99.90
8220;DHT22;4151;51.110;7.020;2023-02-18T14:50:03;9.70;99.90
8220;DHT22;4151;51.110;7.020;2023-02-18T14:52:37;9.70;99.90
8220;DHT22;4151;51.110;7.020;2023-02-18T14:55:10;9.70;99.90
8220;DHT22;4151;51.110;7.020;2023-02-18T14:57:53;9.70;99.90
8220;DHT22;4151;51.110;7.020;2023-02-18T15:00:23;9.70;99.90
8220;DHT22;4151;51.110;7.020;2023-02-18T15:02:52;9.80;99.90
8220;DHT22;4151;51.110;7.020;2023-02-18T15:05:23;9.80;99.90
8220;DHT22;4151;51.110;7.020;2023-02-18T15:10:40;9.80;99.90
8220;DHT22;4151;51.110;7.020;2023-02-18T15:13:28;9.90;99.90
8220;DHT22;4151;51.110;7.020;2023-02-18T15:16:17;9.90;99.90
8220;DHT22;4151;51.110;7.020;2023-02-18T15:18:54;9.90;99.90
8220;DHT22;4151;51.110;7.020;2023-02-18T15:21:28;9.90;99.90
8220;DHT22;4151;51.110;7.020;2023-02-18T15:23:55;9.90;99.90
8220;DHT22;4151;51.110;7.020;2023-02-18T15:26:23;9.90;99.90
8220;DHT22;4151;51.110;7.020;2023-02-18T15:28:59;9.80;99.90
8220;DHT22;4151;51.110;7.020;2023-02-18T15:31:30;9.80;99.90
8220;DHT22;4151;51.110;7.020;2023-02-18T15:33:56;9.80;99.90
8220;DHT22;4151;51.110;7.020;2023-02-18T15:36:23;9.80;99.90
8220;DHT22;4151;51.110;7.020;2023-02-18T15:38:49;9.80;99.90
8220;DHT22;4151;51.110;7.020;2023-02-18T15:41:17;9.80;99.90
8220;DHT22;4151;51.110;7.020;2023-02-18T15:44:04;9.80;99.90
8220;DHT22;4151;51.110;7.020;2023-02-18T15:46:32;9.80;99.90
8220;DHT22;4151;51.110;7.020;2023-02-18T15:48:59;9.80;99.90
8220;DHT22;4151;51.110;7.020;2023-02-18T15:51:29;9.80;99.90
8220;DHT22;4151;51.110;7.020;2023-02-18T15:53:58;9.80;99.90
8220;DHT22;4151;51.110;7.020;2023-02-18T15:59:08;9.80;99.90
8220;DHT22;4151;51.110;7.020;2023-02-18T16:01:34;9.80;99.90
8220;DHT22;4151;51.110;7.020;2023-02-18T16:04:00;9.80;99.90
8220;DHT22;4151;51.110;7.020;2023-02-18T16:06:28;9.90;99.90
8220;DHT22;4151;51.110;7.020;2023-02-18T16:11:28;9.90;99.90
8220;DHT22;4151;51.110;7.020;2023-02-18T16:13:55;9.90;99.90
8220;DHT22;4151;51.110;7.020;2023-02-18T16:16:28;9.90;99.90
8220;DHT22;4151;51.110;7.020;2023-02-18T16:18:54;9.90;99.90
8220;DHT22;4151;51.110;7.020;2023-02-18T16:23:52;9.90;99.90
8220;DHT22;4151;51.110;7.020;2023-02-18T16:26:28;9.90;99.90
8220;DHT22;4151;51.110;7.020;2023-02-18T16:29:01;9.90;99.90
8220;DHT22;4151;51.110;7.020;2023-02-18T16:31:27;9.90;99.90
8220;DHT22;4151;51.110;7.020;2023-02-18T16:33:52;9.90;99.90
8220;DHT22;4151;51.110;7.020;2023-02-18T16:36:18;10.00;99.90
8220;DHT22;4151;51.110;7.020;2023-02-18T16:38:45;10.00;99.90
8220;DHT22;4151;51.110;7.020;2023-02-18T16:41:12;10.00;99.90
8220;DHT22;4151;51.110;7.020;2023-02-18T16:43:38;10.00;99.90
8220;DHT22;4151;51.110;7.020;2023-02-18T16:46:11;10.10;99.90
8220;DHT22;4151;51.110;7.020;2023-02-18T16:48:40;10.10;99.90
8220;DHT22;4151;51.110;7.020;2023-02-18T16:51:13;10.10;99.90
8220;DHT22;4151;51.110;7.020;2023-02-18T16:53:39;10.10;99.90
8220;DHT22;4151;51.110;7.020;2023-02-18T16:56:15;10.10;99.90
8220;DHT22;4151;51.110;7.020;2023-02-18T16:58:41;10.10;99.90
8220;DHT22;4151;51.110;7.020;2023-02-18T17:01:19;10.10;99.90
8220;DHT22;4151;51.110;7.020;2023-02-18T17:03:45;10.10;99.90
8220;DHT22;4151;51.110;7.020;2023-02-18T17:06:11;10.20;99.90
8220;DHT22;4151;51.110;7.020;2023-02-18T17:08:38;10.20;99.90
8220;DHT22;4151;51.110;7.020;2023-02-18T17:11:03;10.20;99.90
8220;DHT22;4151;51.110;7.020;2023-02-18T17:13:29;10.20;99.90
8220;DHT22;4151;51.110;7.020;2023-02-18T17:15:57;10.20;99.90
8220;DHT22;4151;51.110;7.020;2023-02-18T17:18:23;10.20;99.90
8220;DHT22;4151;51.110;7.020;2023-02-18T17:20:51;10.20;99.90
8220;DHT22;4151;51.110;7.020;2023-02-18T17:23:19;10.20;99.90
8220;DHT22;4151;51.110;7.020;2023-02-18T17:25:49;10.20;99.90
8220;DHT22;4151;51.110;7.020;2023-02-18T17:28:15;10.20;99.90
8220;DHT22;4151;51.110;7.020;2023-02-18T17:30:54;10.10;99.90
8220;DHT22;4151;51.110;7.020;2023-02-18T17:33:23;10.10;99.90
8220;DHT22;4151;51.110;7.020;2023-02-18T17:35:49;10.10;99.90
8220;DHT22;4151;51.110;7.020;2023-02-18T17:38:17;10.00;99.90
8220;DHT22;4151;51.110;7.020;2023-02-18T17:40:44;10.00;99.90
8220;DHT22;4151;51.110;7.020;2023-02-18T17:43:12;10.00;99.90
8220;DHT22;4151;51.110;7.020;2023-02-18T17:45:58;10.00;99.90
8220;DHT22;4151;51.110;7.020;2023-02-18T17:48:25;10.00;99.90
8220;DHT22;4151;51.110;7.020;2023-02-18T17:50:51;9.90;99.90
8220;DHT22;4151;51.110;7.020;2023-02-18T17:53:17;10.00;99.90
8220;DHT22;4151;51.110;7.020;2023-02-18T17:55:44;10.00;99.90
8220;DHT22;4151;51.110;7.020;2023-02-18T17:58:11;10.00;99.90
8220;DHT22;4151;51.110;7.020;2023-02-18T18:00:40;9.90;99.90
8220;DHT22;4151;51.110;7.020;2023-02-18T18:03:06;9.90;99.90
8220;DHT22;4151;51.110;7.020;2023-02-18T18:05:36;9.90;99.90
8220;DHT22;4151;51.110;7.020;2023-02-18T18:08:07;9.90;99.90
8220;DHT22;4151;51.110;7.020;2023-02-18T18:10:35;9.90;99.90
8220;DHT22;4151;51.110;7.020;2023-02-18T18:13:05;9.80;99.90
8220;DHT22;4151;51.110;7.020;2023-02-18T18:15:42;9.90;99.90
8220;DHT22;4151;51.110;7.020;2023-02-18T18:18:09;9.80;99.90
8220;DHT22;4151;51.110;7.020;2023-02-18T18:20:35;9.80;99.90
8220;DHT22;4151;51.110;7.020;2023-02-18T18:23:03;9.80;99.90
8220;DHT22;4151;51.110;7.020;2023-02-18T18:25:35;9.80;99.90
8220;DHT22;4151;51.110;7.020;2023-02-18T18:28:01;9.70;99.90
8220;DHT22;4151;51.110;7.020;2023-02-18T18:30:29;9.70;99.90
8220;DHT22;4151;51.110;7.020;2023-02-18T18:32:56;9.80;99.90
8220;DHT22;4151;51.110;7.020;2023-02-18T18:35:31;9.70;99.90
8220;DHT22;4151;51.110;7.020;2023-02-18T18:37:58;9.80;99.90
8220;DHT22;4151;51.110;7.020;2023-02-18T18:40:26;9.70;99.90
8220;DHT22;4151;51.110;7.020;2023-02-18T18:42:54;9.70;99.90
8220;DHT22;4151;51.110;7.020;2023-02-18T18:45:28;9.70;99.90
8220;DHT22;4151;51.110;7.020;2023-02-18T18:47:55;9.70;99.90
8220;DHT22;4151;51.110;7.020;2023-02-18T18:50:21;9.70;99.90
8220;DHT22;4151;51.110;7.020;2023-02-18T18:52:49;9.70;99.90
8220;DHT22;4151;51.110;7.020;2023-02-18T18:55:29;9.70;99.90
8220;DHT22;4151;51.110;7.020;2023-02-18T18:57:56;9.70;99.90
8220;DHT22;4151;51.110;7.020;2023-02-18T19:00:28;9.70;99.90
8220;DHT22;4151;51.110;7.020;2023-02-18T19:02:53;9.70;99.90
8220;DHT22;4151;51.110;7.020;2023-02-18T19:05:24;9.70;99.90
8220;DHT22;4151;51.110;7.020;2023-02-18T19:07:50;9.70;99.90